Saint Clement, Missouri
Current Conditions -  °F | °C
As of 12:15 AM on Sunday 21 Dec 2014 (Local Time) from KPPQ Reporting Station
Overcast Overcast  
Wind Chill: 32°   Ceiling: 3300
Heat Index: 37°   Visibility: 7mi
Dew Point: 34°   Wind: 6mph
Humidity: 89%   Direction: 150°SSE
Pressure: 30.21"   Gusts: NA
Location:  39.321°N, 91.1912°W
Report Text: KPPQ 210615Z AUTO 15005KT 7SM OVC033 03/01 A3021 RMK AO2 T00280012
Loading
Personal Weather Stations






























Interactive Weather Map New forecast layout! Learn more

10-Day Weather Forecast

Advertisements
Track Severe Weather on mobile